sensor_id;sensor_type;location;lat;lon;timestamp;P1;durP1;ratioP1;P2;durP2;ratioP2
68377;SDS011;55322;48.146;11.516;2023-07-13T00:02:14;8.52;;;3.10;;
68377;SDS011;55322;48.146;11.516;2023-07-13T00:04:40;9.15;;;3.60;;
68377;SDS011;55322;48.146;11.516;2023-07-13T00:07:05;8.70;;;3.50;;
68377;SDS011;55322;48.146;11.516;2023-07-13T00:09:30;7.23;;;3.20;;
68377;SDS011;55322;48.146;11.516;2023-07-13T00:11:56;7.73;;;2.90;;
68377;SDS011;55322;48.146;11.516;2023-07-13T00:14:23;7.50;;;3.20;;
68377;SDS011;55322;48.146;11.516;2023-07-13T00:16:49;8.93;;;3.40;;
68377;SDS011;55322;48.146;11.516;2023-07-13T00:19:14;6.80;;;3.13;;
68377;SDS011;55322;48.146;11.516;2023-07-13T00:21:40;7.23;;;2.93;;
68377;SDS011;55322;48.146;11.516;2023-07-13T00:24:06;6.72;;;2.65;;
68377;SDS011;55322;48.146;11.516;2023-07-13T00:26:33;6.72;;;2.75;;
68377;SDS011;55322;48.146;11.516;2023-07-13T00:28:59;7.53;;;3.15;;
68377;SDS011;55322;48.146;11.516;2023-07-13T00:31:24;7.17;;;3.63;;
68377;SDS011;55322;48.146;11.516;2023-07-13T00:33:50;7.00;;;2.73;;
68377;SDS011;55322;48.146;11.516;2023-07-13T00:36:16;7.15;;;2.47;;
68377;SDS011;55322;48.146;11.516;2023-07-13T00:38:42;5.70;;;2.10;;
68377;SDS011;55322;48.146;11.516;2023-07-13T00:41:07;8.27;;;2.53;;
68377;SDS011;55322;48.146;11.516;2023-07-13T00:43:33;6.55;;;2.30;;
68377;SDS011;55322;48.146;11.516;2023-07-13T00:48:25;8.30;;;2.60;;
68377;SDS011;55322;48.146;11.516;2023-07-13T00:50:57;6.78;;;2.50;;
68377;SDS011;55322;48.146;11.516;2023-07-13T00:53:26;6.13;;;2.25;;
68377;SDS011;55322;48.146;11.516;2023-07-13T00:55:54;6.50;;;2.40;;
68377;SDS011;55322;48.146;11.516;2023-07-13T00:58:21;7.53;;;2.30;;
68377;SDS011;55322;48.146;11.516;2023-07-13T01:00:47;6.10;;;2.35;;
68377;SDS011;55322;48.146;11.516;2023-07-13T01:03:14;5.55;;;2.10;;
68377;SDS011;55322;48.146;11.516;2023-07-13T01:05:40;7.85;;;2.20;;
68377;SDS011;55322;48.146;11.516;2023-07-13T01:08:06;10.13;;;3.67;;
68377;SDS011;55322;48.146;11.516;2023-07-13T01:10:31;6.55;;;2.50;;
68377;SDS011;55322;48.146;11.516;2023-07-13T01:13:04;8.43;;;2.70;;
68377;SDS011;55322;48.146;11.516;2023-07-13T01:15:38;6.90;;;2.50;;
68377;SDS011;55322;48.146;11.516;2023-07-13T01:18:06;6.80;;;2.40;;
68377;SDS011;55322;48.146;11.516;2023-07-13T01:20:36;6.72;;;2.28;;
68377;SDS011;55322;48.146;11.516;2023-07-13T01:23:05;7.65;;;2.40;;
68377;SDS011;55322;48.146;11.516;2023-07-13T01:25:33;6.87;;;2.23;;
68377;SDS011;55322;48.146;11.516;2023-07-13T01:27:59;6.07;;;2.38;;
68377;SDS011;55322;48.146;11.516;2023-07-13T01:30:25;5.87;;;2.07;;
68377;SDS011;55322;48.146;11.516;2023-07-13T01:32:50;8.73;;;2.40;;
68377;SDS011;55322;48.146;11.516;2023-07-13T01:35:15;6.83;;;2.10;;
68377;SDS011;55322;48.146;11.516;2023-07-13T01:37:41;5.93;;;2.30;;
68377;SDS011;55322;48.146;11.516;2023-07-13T01:40:07;6.25;;;2.28;;
68377;SDS011;55322;48.146;11.516;2023-07-13T01:42:33;6.80;;;2.55;;
68377;SDS011;55322;48.146;11.516;2023-07-13T01:44:59;5.43;;;2.30;;
68377;SDS011;55322;48.146;11.516;2023-07-13T01:47:24;7.80;;;2.43;;
68377;SDS011;55322;48.146;11.516;2023-07-13T01:49:51;6.40;;;2.38;;
68377;SDS011;55322;48.146;11.516;2023-07-13T01:52:16;5.83;;;2.60;;
68377;SDS011;55322;48.146;11.516;2023-07-13T01:54:42;8.88;;;3.08;;
68377;SDS011;55322;48.146;11.516;2023-07-13T01:57:07;6.70;;;2.87;;
68377;SDS011;55322;48.146;11.516;2023-07-13T01:59:33;8.27;;;3.00;;
68377;SDS011;55322;48.146;11.516;2023-07-13T02:01:58;8.57;;;2.93;;
68377;SDS011;55322;48.146;11.516;2023-07-13T02:04:23;7.90;;;3.10;;
68377;SDS011;55322;48.146;11.516;2023-07-13T02:06:49;8.10;;;3.50;;
68377;SDS011;55322;48.146;11.516;2023-07-13T02:09:14;8.40;;;3.37;;
68377;SDS011;55322;48.146;11.516;2023-07-13T02:11:39;8.25;;;3.80;;
68377;SDS011;55322;48.146;11.516;2023-07-13T02:14:05;7.50;;;3.17;;
68377;SDS011;55322;48.146;11.516;2023-07-13T02:16:30;7.20;;;3.33;;
68377;SDS011;55322;48.146;11.516;2023-07-13T02:18:56;7.73;;;3.50;;
68377;SDS011;55322;48.146;11.516;2023-07-13T02:21:22;9.55;;;4.13;;
68377;SDS011;55322;48.146;11.516;2023-07-13T02:23:48;9.18;;;3.45;;
68377;SDS011;55322;48.146;11.516;2023-07-13T02:26:14;7.82;;;3.90;;
68377;SDS011;55322;48.146;11.516;2023-07-13T02:28:39;7.53;;;3.83;;
68377;SDS011;55322;48.146;11.516;2023-07-13T02:31:06;8.50;;;3.83;;
68377;SDS011;55322;48.146;11.516;2023-07-13T02:33:36;11.18;;;4.50;;
68377;SDS011;55322;48.146;11.516;2023-07-13T02:36:01;8.57;;;3.87;;
68377;SDS011;55322;48.146;11.516;2023-07-13T02:38:27;8.88;;;3.80;;
68377;SDS011;55322;48.146;11.516;2023-07-13T02:40:52;7.43;;;3.57;;
68377;SDS011;55322;48.146;11.516;2023-07-13T02:43:18;9.33;;;4.20;;
68377;SDS011;55322;48.146;11.516;2023-07-13T02:45:43;10.50;;;4.07;;
68377;SDS011;55322;48.146;11.516;2023-07-13T02:48:09;7.88;;;3.90;;
68377;SDS011;55322;48.146;11.516;2023-07-13T02:50:35;10.93;;;4.17;;
68377;SDS011;55322;48.146;11.516;2023-07-13T02:53:00;9.73;;;4.60;;
68377;SDS011;55322;48.146;11.516;2023-07-13T02:55:25;12.70;;;5.07;;
68377;SDS011;55322;48.146;11.516;2023-07-13T02:57:51;11.27;;;4.67;;
68377;SDS011;55322;48.146;11.516;2023-07-13T03:00:16;9.13;;;4.00;;
68377;SDS011;55322;48.146;11.516;2023-07-13T03:02:42;8.70;;;3.77;;
68377;SDS011;55322;48.146;11.516;2023-07-13T03:05:07;11.57;;;4.33;;
68377;SDS011;55322;48.146;11.516;2023-07-13T03:07:35;8.02;;;3.70;;
68377;SDS011;55322;48.146;11.516;2023-07-13T03:10:01;8.07;;;3.63;;
68377;SDS011;55322;48.146;11.516;2023-07-13T03:12:27;9.23;;;3.70;;
68377;SDS011;55322;48.146;11.516;2023-07-13T03:14:52;10.93;;;4.23;;
68377;SDS011;55322;48.146;11.516;2023-07-13T03:17:17;10.23;;;4.05;;
68377;SDS011;55322;48.146;11.516;2023-07-13T03:19:43;8.63;;;3.33;;
68377;SDS011;55322;48.146;11.516;2023-07-13T03:22:08;11.40;;;3.70;;
68377;SDS011;55322;48.146;11.516;2023-07-13T03:24:34;8.73;;;3.35;;
68377;SDS011;55322;48.146;11.516;2023-07-13T03:27:01;9.83;;;3.20;;
68377;SDS011;55322;48.146;11.516;2023-07-13T03:29:28;7.93;;;3.10;;
68377;SDS011;55322;48.146;11.516;2023-07-13T03:31:54;8.70;;;3.27;;
68377;SDS011;55322;48.146;11.516;2023-07-13T03:34:19;8.80;;;3.00;;
68377;SDS011;55322;48.146;11.516;2023-07-13T03:36:44;11.40;;;3.67;;
68377;SDS011;55322;48.146;11.516;2023-07-13T03:39:09;8.23;;;3.33;;
68377;SDS011;55322;48.146;11.516;2023-07-13T03:41:35;9.07;;;3.10;;
68377;SDS011;55322;48.146;11.516;2023-07-13T03:44:01;7.32;;;2.88;;
68377;SDS011;55322;48.146;11.516;2023-07-13T03:46:26;7.97;;;3.10;;
68377;SDS011;55322;48.146;11.516;2023-07-13T03:48:52;9.10;;;3.25;;
68377;SDS011;55322;48.146;11.516;2023-07-13T03:51:17;8.70;;;3.60;;
68377;SDS011;55322;48.146;11.516;2023-07-13T03:53:43;7.53;;;3.13;;
68377;SDS011;55322;48.146;11.516;2023-07-13T03:56:09;6.78;;;3.28;;
68377;SDS011;55322;48.146;11.516;2023-07-13T03:58:39;8.25;;;3.33;;
68377;SDS011;55322;48.146;11.516;2023-07-13T04:01:06;6.87;;;2.90;;
68377;SDS011;55322;48.146;11.516;2023-07-13T04:03:33;7.78;;;3.00;;
68377;SDS011;55322;48.146;11.516;2023-07-13T04:05:59;7.53;;;2.90;;
68377;SDS011;55322;48.146;11.516;2023-07-13T04:08:29;7.57;;;2.55;;
68377;SDS011;55322;48.146;11.516;2023-07-13T04:10:57;7.50;;;2.60;;
68377;SDS011;55322;48.146;11.516;2023-07-13T04:13:23;13.32;;;2.65;;
68377;SDS011;55322;48.146;11.516;2023-07-13T04:15:48;8.55;;;2.97;;
68377;SDS011;55322;48.146;11.516;2023-07-13T04:18:14;7.37;;;2.73;;
68377;SDS011;55322;48.146;11.516;2023-07-13T04:20:39;7.17;;;2.63;;
68377;SDS011;55322;48.146;11.516;2023-07-13T04:23:04;7.17;;;2.80;;
68377;SDS011;55322;48.146;11.516;2023-07-13T04:25:30;8.13;;;3.05;;
68377;SDS011;55322;48.146;11.516;2023-07-13T04:27:55;6.83;;;3.17;;
68377;SDS011;55322;48.146;11.516;2023-07-13T04:30:21;7.20;;;2.90;;
68377;SDS011;55322;48.146;11.516;2023-07-13T04:32:46;7.23;;;2.60;;
68377;SDS011;55322;48.146;11.516;2023-07-13T04:35:12;7.97;;;2.80;;
68377;SDS011;55322;48.146;11.516;2023-07-13T04:37:39;8.68;;;2.80;;
68377;SDS011;55322;48.146;11.516;2023-07-13T04:40:04;7.43;;;3.03;;
68377;SDS011;55322;48.146;11.516;2023-07-13T04:42:31;7.05;;;2.80;;
68377;SDS011;55322;48.146;11.516;2023-07-13T04:44:56;6.57;;;2.90;;
68377;SDS011;55322;48.146;11.516;2023-07-13T04:47:21;6.87;;;2.83;;
68377;SDS011;55322;48.146;11.516;2023-07-13T04:49:47;8.95;;;3.10;;
68377;SDS011;55322;48.146;11.516;2023-07-13T04:52:12;7.70;;;3.07;;
68377;SDS011;55322;48.146;11.516;2023-07-13T04:54:38;6.83;;;2.60;;
68377;SDS011;55322;48.146;11.516;2023-07-13T04:57:04;8.60;;;2.95;;
68377;SDS011;55322;48.146;11.516;2023-07-13T04:59:31;8.52;;;2.92;;
68377;SDS011;55322;48.146;11.516;2023-07-13T05:01:57;9.30;;;2.93;;
68377;SDS011;55322;48.146;11.516;2023-07-13T05:04:22;7.00;;;2.90;;
68377;SDS011;55322;48.146;11.516;2023-07-13T05:06:47;7.07;;;2.63;;
68377;SDS011;55322;48.146;11.516;2023-07-13T05:09:13;7.88;;;2.97;;
68377;SDS011;55322;48.146;11.516;2023-07-13T05:11:38;8.40;;;2.80;;
68377;SDS011;55322;48.146;11.516;2023-07-13T05:14:04;9.17;;;2.80;;
68377;SDS011;55322;48.146;11.516;2023-07-13T05:16:29;7.75;;;2.50;;
68377;SDS011;55322;48.146;11.516;2023-07-13T05:18:55;7.10;;;3.27;;
68377;SDS011;55322;48.146;11.516;2023-07-13T05:21:20;8.17;;;2.87;;
68377;SDS011;55322;48.146;11.516;2023-07-13T05:23:45;9.37;;;2.87;;
68377;SDS011;55322;48.146;11.516;2023-07-13T05:26:12;7.93;;;2.67;;
68377;SDS011;55322;48.146;11.516;2023-07-13T05:28:38;8.13;;;2.87;;
68377;SDS011;55322;48.146;11.516;2023-07-13T05:31:03;7.93;;;3.13;;
68377;SDS011;55322;48.146;11.516;2023-07-13T05:33:29;8.43;;;3.40;;
68377;SDS011;55322;48.146;11.516;2023-07-13T05:35:55;9.10;;;3.43;;
68377;SDS011;55322;48.146;11.516;2023-07-13T05:38:21;9.73;;;3.28;;
68377;SDS011;55322;48.146;11.516;2023-07-13T05:40:46;8.23;;;3.17;;
68377;SDS011;55322;48.146;11.516;2023-07-13T05:43:12;7.75;;;3.40;;
68377;SDS011;55322;48.146;11.516;2023-07-13T05:45:38;7.73;;;3.40;;
68377;SDS011;55322;48.146;11.516;2023-07-13T05:48:04;8.23;;;3.53;;
68377;SDS011;55322;48.146;11.516;2023-07-13T05:50:29;8.53;;;3.73;;
68377;SDS011;55322;48.146;11.516;2023-07-13T05:52:54;11.20;;;4.00;;
68377;SDS011;55322;48.146;11.516;2023-07-13T05:55:20;10.77;;;3.60;;
68377;SDS011;55322;48.146;11.516;2023-07-13T05:57:45;9.38;;;3.92;;
68377;SDS011;55322;48.146;11.516;2023-07-13T06:00:12;10.83;;;3.30;;
68377;SDS011;55322;48.146;11.516;2023-07-13T06:02:37;8.27;;;3.10;;
68377;SDS011;55322;48.146;11.516;2023-07-13T06:05:03;9.27;;;3.30;;
68377;SDS011;55322;48.146;11.516;2023-07-13T06:07:28;8.03;;;3.40;;
68377;SDS011;55322;48.146;11.516;2023-07-13T06:09:54;8.57;;;3.10;;
68377;SDS011;55322;48.146;11.516;2023-07-13T06:12:19;8.73;;;3.33;;
68377;SDS011;55322;48.146;11.516;2023-07-13T06:14:44;8.00;;;3.00;;
68377;SDS011;55322;48.146;11.516;2023-07-13T06:17:09;8.90;;;3.20;;
68377;SDS011;55322;48.146;11.516;2023-07-13T06:19:35;7.70;;;3.43;;
68377;SDS011;55322;48.146;11.516;2023-07-13T06:22:00;8.53;;;3.10;;
68377;SDS011;55322;48.146;11.516;2023-07-13T06:24:25;8.67;;;3.07;;
68377;SDS011;55322;48.146;11.516;2023-07-13T06:26:51;8.07;;;3.22;;
68377;SDS011;55322;48.146;11.516;2023-07-13T06:29:16;8.83;;;3.17;;
68377;SDS011;55322;48.146;11.516;2023-07-13T06:31:42;7.80;;;3.17;;
68377;SDS011;55322;48.146;11.516;2023-07-13T06:34:07;8.77;;;3.03;;
68377;SDS011;55322;48.146;11.516;2023-07-13T06:36:32;7.85;;;3.03;;
68377;SDS011;55322;48.146;11.516;2023-07-13T06:38:58;8.13;;;3.17;;
68377;SDS011;55322;48.146;11.516;2023-07-13T06:41:23;9.27;;;2.87;;
68377;SDS011;55322;48.146;11.516;2023-07-13T06:43:51;11.27;;;2.67;;
68377;SDS011;55322;48.146;11.516;2023-07-13T06:46:17;5.87;;;2.10;;
68377;SDS011;55322;48.146;11.516;2023-07-13T06:48:42;9.03;;;2.47;;
68377;SDS011;55322;48.146;11.516;2023-07-13T06:51:07;9.50;;;2.83;;
68377;SDS011;55322;48.146;11.516;2023-07-13T06:53:33;10.07;;;3.00;;
68377;SDS011;55322;48.146;11.516;2023-07-13T06:55:58;8.07;;;2.67;;
68377;SDS011;55322;48.146;11.516;2023-07-13T06:58:23;7.70;;;2.53;;
68377;SDS011;55322;48.146;11.516;2023-07-13T07:00:50;6.97;;;2.83;;
68377;SDS011;55322;48.146;11.516;2023-07-13T07:03:16;6.78;;;3.03;;
68377;SDS011;55322;48.146;11.516;2023-07-13T07:05:42;7.40;;;2.60;;
68377;SDS011;55322;48.146;11.516;2023-07-13T07:08:07;9.83;;;2.87;;
68377;SDS011;55322;48.146;11.516;2023-07-13T07:10:32;8.90;;;2.47;;
68377;SDS011;55322;48.146;11.516;2023-07-13T07:12:58;7.80;;;2.90;;
68377;SDS011;55322;48.146;11.516;2023-07-13T07:15:23;8.97;;;2.67;;
68377;SDS011;55322;48.146;11.516;2023-07-13T07:17:49;9.27;;;2.83;;
68377;SDS011;55322;48.146;11.516;2023-07-13T07:20:14;8.57;;;2.90;;
68377;SDS011;55322;48.146;11.516;2023-07-13T07:22:40;11.30;;;3.57;;
68377;SDS011;55322;48.146;11.516;2023-07-13T07:25:05;11.40;;;4.17;;
68377;SDS011;55322;48.146;11.516;2023-07-13T07:27:31;10.05;;;3.00;;
68377;SDS011;55322;48.146;11.516;2023-07-13T07:29:57;7.87;;;3.27;;
68377;SDS011;55322;48.146;11.516;2023-07-13T07:32:22;8.90;;;3.28;;
68377;SDS011;55322;48.146;11.516;2023-07-13T07:34:48;7.73;;;2.90;;
68377;SDS011;55322;48.146;11.516;2023-07-13T07:37:13;9.97;;;3.30;;
68377;SDS011;55322;48.146;11.516;2023-07-13T07:39:39;9.05;;;2.70;;
68377;SDS011;55322;48.146;11.516;2023-07-13T07:42:04;10.07;;;3.13;;
68377;SDS011;55322;48.146;11.516;2023-07-13T07:44:30;9.10;;;3.03;;
68377;SDS011;55322;48.146;11.516;2023-07-13T07:46:56;8.50;;;2.63;;
68377;SDS011;55322;48.146;11.516;2023-07-13T07:49:22;8.90;;;4.00;;
68377;SDS011;55322;48.146;11.516;2023-07-13T07:51:47;8.57;;;3.10;;
68377;SDS011;55322;48.146;11.516;2023-07-13T07:54:12;7.73;;;3.30;;
68377;SDS011;55322;48.146;11.516;2023-07-13T07:56:38;10.23;;;3.40;;
68377;SDS011;55322;48.146;11.516;2023-07-13T07:59:03;6.23;;;2.60;;
68377;SDS011;55322;48.146;11.516;2023-07-13T08:01:29;10.40;;;3.50;;
68377;SDS011;55322;48.146;11.516;2023-07-13T08:03:54;8.50;;;2.63;;
68377;SDS011;55322;48.146;11.516;2023-07-13T08:06:19;7.67;;;2.50;;
68377;SDS011;55322;48.146;11.516;2023-07-13T08:08:45;6.27;;;2.40;;
68377;SDS011;55322;48.146;11.516;2023-07-13T08:11:10;8.97;;;2.83;;
68377;SDS011;55322;48.146;11.516;2023-07-13T08:13:36;7.78;;;2.95;;
68377;SDS011;55322;48.146;11.516;2023-07-13T08:16:04;8.43;;;2.95;;
68377;SDS011;55322;48.146;11.516;2023-07-13T08:18:30;9.23;;;2.30;;
68377;SDS011;55322;48.146;11.516;2023-07-13T08:20:55;7.55;;;2.45;;
68377;SDS011;55322;48.146;11.516;2023-07-13T08:23:22;8.27;;;2.40;;
68377;SDS011;55322;48.146;11.516;2023-07-13T08:25:51;7.38;;;2.30;;
68377;SDS011;55322;48.146;11.516;2023-07-13T08:28:18;8.15;;;2.50;;
68377;SDS011;55322;48.146;11.516;2023-07-13T08:30:44;12.32;;;2.72;;
68377;SDS011;55322;48.146;11.516;2023-07-13T08:33:13;9.15;;;2.45;;
68377;SDS011;55322;48.146;11.516;2023-07-13T08:35:39;5.83;;;2.37;;
68377;SDS011;55322;48.146;11.516;2023-07-13T08:38:04;9.10;;;2.43;;
68377;SDS011;55322;48.146;11.516;2023-07-13T08:40:30;7.33;;;2.20;;
68377;SDS011;55322;48.146;11.516;2023-07-13T08:42:57;7.33;;;2.47;;
68377;SDS011;55322;48.146;11.516;2023-07-13T08:45:29;8.30;;;2.10;;
68377;SDS011;55322;48.146;11.516;2023-07-13T08:48:04;7.50;;;1.90;;
68377;SDS011;55322;48.146;11.516;2023-07-13T08:50:35;5.95;;;2.00;;
68377;SDS011;55322;48.146;11.516;2023-07-13T08:53:11;10.00;;;2.20;;
68377;SDS011;55322;48.146;11.516;2023-07-13T08:55:38;7.03;;;1.93;;
68377;SDS011;55322;48.146;11.516;2023-07-13T08:58:14;8.63;;;2.33;;
68377;SDS011;55322;48.146;11.516;2023-07-13T09:03:21;6.73;;;1.83;;
68377;SDS011;55322;48.146;11.516;2023-07-13T09:05:50;5.55;;;1.55;;
68377;SDS011;55322;48.146;11.516;2023-07-13T09:11:01;6.68;;;1.73;;
68377;SDS011;55322;48.146;11.516;2023-07-13T09:13:39;7.28;;;1.73;;
68377;SDS011;55322;48.146;11.516;2023-07-13T09:16:17;7.53;;;1.80;;
68377;SDS011;55322;48.146;11.516;2023-07-13T09:18:49;6.05;;;1.70;;
68377;SDS011;55322;48.146;11.516;2023-07-13T09:21:18;6.40;;;1.67;;
68377;SDS011;55322;48.146;11.516;2023-07-13T09:23:48;6.43;;;1.70;;
68377;SDS011;55322;48.146;11.516;2023-07-13T09:26:22;8.82;;;1.83;;
68377;SDS011;55322;48.146;11.516;2023-07-13T09:28:50;7.18;;;1.70;;
68377;SDS011;55322;48.146;11.516;2023-07-13T09:33:59;7.55;;;1.77;;
68377;SDS011;55322;48.146;11.516;2023-07-13T09:36:26;6.77;;;1.97;;
68377;SDS011;55322;48.146;11.516;2023-07-13T09:41:39;7.25;;;1.50;;
68377;SDS011;55322;48.146;11.516;2023-07-13T09:44:27;8.70;;;1.70;;
68377;SDS011;55322;48.146;11.516;2023-07-13T09:46:56;5.63;;;1.67;;
68377;SDS011;55322;48.146;11.516;2023-07-13T09:49:25;5.78;;;1.75;;
68377;SDS011;55322;48.146;11.516;2023-07-13T09:51:59;5.88;;;1.70;;
68377;SDS011;55322;48.146;11.516;2023-07-13T09:54:27;5.18;;;1.40;;
68377;SDS011;55322;48.146;11.516;2023-07-13T09:56:54;7.40;;;1.33;;
68377;SDS011;55322;48.146;11.516;2023-07-13T09:59:21;6.00;;;1.30;;
68377;SDS011;55322;48.146;11.516;2023-07-13T10:01:49;6.80;;;1.45;;
68377;SDS011;55322;48.146;11.516;2023-07-13T10:04:19;8.43;;;1.38;;
68377;SDS011;55322;48.146;11.516;2023-07-13T10:06:45;7.07;;;1.20;;
68377;SDS011;55322;48.146;11.516;2023-07-13T10:09:15;5.47;;;1.38;;
68377;SDS011;55322;48.146;11.516;2023-07-13T10:11:42;5.20;;;1.10;;
68377;SDS011;55322;48.146;11.516;2023-07-13T10:14:20;7.97;;;1.40;;
68377;SDS011;55322;48.146;11.516;2023-07-13T10:16:51;6.50;;;1.30;;
68377;SDS011;55322;48.146;11.516;2023-07-13T10:19:27;7.07;;;1.33;;
68377;SDS011;55322;48.146;11.516;2023-07-13T10:24:48;7.30;;;1.20;;
68377;SDS011;55322;48.146;11.516;2023-07-13T10:27:16;8.07;;;1.17;;
68377;SDS011;55322;48.146;11.516;2023-07-13T10:29:55;4.97;;;1.10;;
68377;SDS011;55322;48.146;11.516;2023-07-13T10:32:26;5.63;;;1.30;;
68377;SDS011;55322;48.146;11.516;2023-07-13T10:34:51;6.85;;;1.23;;
68377;SDS011;55322;48.146;11.516;2023-07-13T10:37:24;5.90;;;1.20;;
68377;SDS011;55322;48.146;11.516;2023-07-13T10:39:53;5.60;;;1.30;;
68377;SDS011;55322;48.146;11.516;2023-07-13T10:42:25;6.80;;;1.23;;
68377;SDS011;55322;48.146;11.516;2023-07-13T10:44:53;5.40;;;1.25;;
68377;SDS011;55322;48.146;11.516;2023-07-13T10:47:19;6.50;;;1.30;;
68377;SDS011;55322;48.146;11.516;2023-07-13T10:49:45;6.80;;;1.53;;
68377;SDS011;55322;48.146;11.516;2023-07-13T10:58:12;6.53;;;1.50;;
68377;SDS011;55322;48.146;11.516;2023-07-13T11:00:43;6.88;;;1.65;;
68377;SDS011;55322;48.146;11.516;2023-07-13T11:03:13;4.47;;;1.30;;
68377;SDS011;55322;48.146;11.516;2023-07-13T11:05:40;8.90;;;1.50;;
68377;SDS011;55322;48.146;11.516;2023-07-13T11:08:19;6.82;;;1.45;;
68377;SDS011;55322;48.146;11.516;2023-07-13T11:10:49;7.93;;;1.63;;
68377;SDS011;55322;48.146;11.516;2023-07-13T11:16:32;7.03;;;1.67;;
68377;SDS011;55322;48.146;11.516;2023-07-13T11:21:28;5.22;;;1.00;;
68377;SDS011;55322;48.146;11.516;2023-07-13T11:31:40;4.32;;;1.00;;
68377;SDS011;55322;48.146;11.516;2023-07-13T11:34:10;5.50;;;1.25;;
68377;SDS011;55322;48.146;11.516;2023-07-13T11:36:38;5.73;;;1.50;;
68377;SDS011;55322;48.146;11.516;2023-07-13T11:39:19;7.18;;;1.65;;
68377;SDS011;55322;48.146;11.516;2023-07-13T11:41:53;5.47;;;1.50;;
68377;SDS011;55322;48.146;11.516;2023-07-13T11:44:22;5.50;;;1.50;;
68377;SDS011;55322;48.146;11.516;2023-07-13T11:46:50;7.82;;;1.52;;
68377;SDS011;55322;48.146;11.516;2023-07-13T11:49:21;5.50;;;1.20;;
68377;SDS011;55322;48.146;11.516;2023-07-13T11:51:48;6.30;;;1.27;;
68377;SDS011;55322;48.146;11.516;2023-07-13T11:54:32;5.82;;;1.17;;
68377;SDS011;55322;48.146;11.516;2023-07-13T11:57:02;5.47;;;1.10;;
68377;SDS011;55322;48.146;11.516;2023-07-13T11:59:31;6.80;;;1.40;;
68377;SDS011;55322;48.146;11.516;2023-07-13T12:01:58;6.72;;;1.40;;
68377;SDS011;55322;48.146;11.516;2023-07-13T12:04:25;5.40;;;1.20;;
68377;SDS011;55322;48.146;11.516;2023-07-13T12:06:56;5.68;;;1.30;;
68377;SDS011;55322;48.146;11.516;2023-07-13T12:09:28;10.13;;;2.60;;
68377;SDS011;55322;48.146;11.516;2023-07-13T12:11:53;6.72;;;1.58;;
68377;SDS011;55322;48.146;11.516;2023-07-13T12:14:19;9.87;;;1.83;;
68377;SDS011;55322;48.146;11.516;2023-07-13T12:16:45;6.63;;;1.55;;
68377;SDS011;55322;48.146;11.516;2023-07-13T12:19:21;7.97;;;1.25;;
68377;SDS011;55322;48.146;11.516;2023-07-13T12:21:50;5.57;;;1.37;;
68377;SDS011;55322;48.146;11.516;2023-07-13T12:24:19;6.13;;;1.38;;
68377;SDS011;55322;48.146;11.516;2023-07-13T12:27:02;5.53;;;1.40;;
68377;SDS011;55322;48.146;11.516;2023-07-13T12:29:29;6.10;;;1.42;;
68377;SDS011;55322;48.146;11.516;2023-07-13T12:31:57;6.10;;;1.20;;
68377;SDS011;55322;48.146;11.516;2023-07-13T12:34:24;5.73;;;1.30;;
68377;SDS011;55322;48.146;11.516;2023-07-13T12:36:51;6.55;;;1.20;;
68377;SDS011;55322;48.146;11.516;2023-07-13T12:39:22;5.25;;;1.33;;
68377;SDS011;55322;48.146;11.516;2023-07-13T12:44:49;7.60;;;1.55;;
68377;SDS011;55322;48.146;11.516;2023-07-13T12:47:15;6.73;;;1.47;;
68377;SDS011;55322;48.146;11.516;2023-07-13T12:49:53;5.22;;;1.30;;
68377;SDS011;55322;48.146;11.516;2023-07-13T12:52:23;5.43;;;1.40;;
68377;SDS011;55322;48.146;11.516;2023-07-13T12:55:13;6.43;;;1.37;;
68377;SDS011;55322;48.146;11.516;2023-07-13T12:57:42;6.72;;;1.35;;
68377;SDS011;55322;48.146;11.516;2023-07-13T13:00:35;7.22;;;1.30;;
68377;SDS011;55322;48.146;11.516;2023-07-13T13:06:18;5.50;;;1.30;;
68377;SDS011;55322;48.146;11.516;2023-07-13T13:08:49;12.90;;;1.80;;
68377;SDS011;55322;48.146;11.516;2023-07-13T13:11:16;5.28;;;1.23;;
68377;SDS011;55322;48.146;11.516;2023-07-13T13:13:42;7.68;;;1.35;;
68377;SDS011;55322;48.146;11.516;2023-07-13T13:16:12;6.03;;;1.20;;
68377;SDS011;55322;48.146;11.516;2023-07-13T13:18:44;6.65;;;1.80;;
68377;SDS011;55322;48.146;11.516;2023-07-13T13:21:10;5.57;;;1.10;;
68377;SDS011;55322;48.146;11.516;2023-07-13T13:23:36;5.75;;;1.50;;
68377;SDS011;55322;48.146;11.516;2023-07-13T13:26:01;7.87;;;1.40;;
68377;SDS011;55322;48.146;11.516;2023-07-13T13:28:27;5.28;;;1.30;;
68377;SDS011;55322;48.146;11.516;2023-07-13T13:30:52;7.90;;;1.30;;
68377;SDS011;55322;48.146;11.516;2023-07-13T13:33:19;7.30;;;1.37;;
68377;SDS011;55322;48.146;11.516;2023-07-13T13:35:46;6.57;;;1.20;;
68377;SDS011;55322;48.146;11.516;2023-07-13T13:38:16;5.07;;;1.33;;
68377;SDS011;55322;48.146;11.516;2023-07-13T13:40:44;6.57;;;1.52;;
68377;SDS011;55322;48.146;11.516;2023-07-13T13:43:14;4.60;;;1.20;;
68377;SDS011;55322;48.146;11.516;2023-07-13T13:45:53;5.07;;;1.30;;
68377;SDS011;55322;48.146;11.516;2023-07-13T13:48:42;7.10;;;1.40;;
68377;SDS011;55322;48.146;11.516;2023-07-13T13:51:14;4.63;;;1.30;;
68377;SDS011;55322;48.146;11.516;2023-07-13T13:53:42;5.63;;;1.40;;
68377;SDS011;55322;48.146;11.516;2023-07-13T13:56:07;5.77;;;1.50;;
68377;SDS011;55322;48.146;11.516;2023-07-13T13:58:33;5.65;;;1.58;;
68377;SDS011;55322;48.146;11.516;2023-07-13T14:00:59;8.00;;;1.70;;
68377;SDS011;55322;48.146;11.516;2023-07-13T14:03:25;5.45;;;1.30;;
68377;SDS011;55322;48.146;11.516;2023-07-13T14:05:50;7.28;;;1.50;;
68377;SDS011;55322;48.146;11.516;2023-07-13T14:08:18;5.83;;;1.30;;
68377;SDS011;55322;48.146;11.516;2023-07-13T14:10:45;5.25;;;1.42;;
68377;SDS011;55322;48.146;11.516;2023-07-13T14:13:46;5.57;;;1.10;;
68377;SDS011;55322;48.146;11.516;2023-07-13T14:16:09;6.20;;;2.00;;
68377;SDS011;55322;48.146;11.516;2023-07-13T14:18:37;8.75;;;2.72;;
68377;SDS011;55322;48.146;11.516;2023-07-13T14:21:03;6.03;;;1.87;;
68377;SDS011;55322;48.146;11.516;2023-07-13T14:23:33;6.10;;;1.00;;
68377;SDS011;55322;48.146;11.516;2023-07-13T14:25:58;6.20;;;1.03;;
68377;SDS011;55322;48.146;11.516;2023-07-13T14:28:24;5.20;;;1.27;;
68377;SDS011;55322;48.146;11.516;2023-07-13T14:30:52;5.35;;;1.10;;
68377;SDS011;55322;48.146;11.516;2023-07-13T14:33:19;5.20;;;1.08;;
68377;SDS011;55322;48.146;11.516;2023-07-13T14:35:45;6.53;;;1.00;;
68377;SDS011;55322;48.146;11.516;2023-07-13T14:38:11;7.60;;;1.30;;
68377;SDS011;55322;48.146;11.516;2023-07-13T14:40:40;6.18;;;1.30;;
68377;SDS011;55322;48.146;11.516;2023-07-13T14:43:08;5.43;;;1.40;;
68377;SDS011;55322;48.146;11.516;2023-07-13T14:45:35;6.38;;;1.40;;
68377;SDS011;55322;48.146;11.516;2023-07-13T14:48:09;7.65;;;2.00;;
68377;SDS011;55322;48.146;11.516;2023-07-13T14:50:39;5.20;;;1.10;;
68377;SDS011;55322;48.146;11.516;2023-07-13T14:53:05;6.28;;;1.40;;
68377;SDS011;55322;48.146;11.516;2023-07-13T14:55:33;5.18;;;1.05;;
68377;SDS011;55322;48.146;11.516;2023-07-13T14:58:00;5.32;;;1.02;;
68377;SDS011;55322;48.146;11.516;2023-07-13T15:00:25;8.73;;;1.10;;
68377;SDS011;55322;48.146;11.516;2023-07-13T15:02:51;5.97;;;1.10;;
68377;SDS011;55322;48.146;11.516;2023-07-13T15:05:22;5.97;;;1.33;;
68377;SDS011;55322;48.146;11.516;2023-07-13T15:07:49;6.03;;;1.45;;
68377;SDS011;55322;48.146;11.516;2023-07-13T15:10:20;4.72;;;1.33;;
68377;SDS011;55322;48.146;11.516;2023-07-13T15:12:58;6.67;;;1.40;;
68377;SDS011;55322;48.146;11.516;2023-07-13T15:15:25;4.90;;;1.20;;
68377;SDS011;55322;48.146;11.516;2023-07-13T15:17:52;6.53;;;1.25;;